sensor_id;sensor_type;location;lat;lon;timestamp;pressure;altitude;pressure_sealevel;temperature;humidity
31337;BME280;22846;42.654;23.314;2023-07-09T00:00:54;94931.00;;;26.67;36.52
31337;BME280;22846;42.654;23.314;2023-07-09T00:03:21;94923.97;;;26.66;36.24
31337;BME280;22846;42.654;23.314;2023-07-09T00:05:48;94916.31;;;26.61;36.27
31337;BME280;22846;42.654;23.314;2023-07-09T00:08:25;94919.84;;;26.62;36.31
31337;BME280;22846;42.654;23.314;2023-07-09T00:10:52;94925.66;;;26.64;36.44
31337;BME280;22846;42.654;23.314;2023-07-09T00:13:17;94921.78;;;26.61;36.44
31337;BME280;22846;42.654;23.314;2023-07-09T00:15:42;94922.56;;;26.62;36.42
31337;BME280;22846;42.654;23.314;2023-07-09T00:18:09;94918.28;;;26.61;36.54
31337;BME280;22846;42.654;23.314;2023-07-09T00:20:35;94913.28;;;26.59;36.19
31337;BME280;22846;42.654;23.314;2023-07-09T00:23:00;94920.72;;;26.59;36.32
31337;BME280;22846;42.654;23.314;2023-07-09T00:25:30;94916.44;;;26.58;36.34
31337;BME280;22846;42.654;23.314;2023-07-09T00:27:56;94896.41;;;26.48;36.17
31337;BME280;22846;42.654;23.314;2023-07-09T00:30:23;94912.16;;;26.57;36.26
31337;BME280;22846;42.654;23.314;2023-07-09T00:32:50;94902.66;;;26.49;36.35
31337;BME280;22846;42.654;23.314;2023-07-09T00:35:17;94914.16;;;26.56;36.13
31337;BME280;22846;42.654;23.314;2023-07-09T00:37:44;94916.88;;;26.56;35.97
31337;BME280;22846;42.654;23.314;2023-07-09T00:40:21;94911.84;;;26.55;36.23
31337;BME280;22846;42.654;23.314;2023-07-09T00:42:53;94913.81;;;26.54;36.37
31337;BME280;22846;42.654;23.314;2023-07-09T00:47:49;94908.00;;;26.52;36.19
31337;BME280;22846;42.654;23.314;2023-07-09T00:52:52;94896.28;;;26.52;36.21
31337;BME280;22846;42.654;23.314;2023-07-09T00:55:24;94899.03;;;26.52;36.16
31337;BME280;22846;42.654;23.314;2023-07-09T00:57:55;94897.81;;;26.53;36.19
31337;BME280;22846;42.654;23.314;2023-07-09T01:00:26;94892.78;;;26.51;36.37
31337;BME280;22846;42.654;23.314;2023-07-09T01:02:53;94892.78;;;26.51;36.33
31337;BME280;22846;42.654;23.314;2023-07-09T01:05:18;94894.00;;;26.50;35.88
31337;BME280;22846;42.654;23.314;2023-07-09T01:07:45;94894.00;;;26.50;36.31
31337;BME280;22846;42.654;23.314;2023-07-09T01:10:13;94889.72;;;26.49;36.01
31337;BME280;22846;42.654;23.314;2023-07-09T01:12:39;94889.41;;;26.48;35.97
31337;BME280;22846;42.654;23.314;2023-07-09T01:15:06;94898.06;;;26.46;35.69
31337;BME280;22846;42.654;23.314;2023-07-09T01:17:33;94892.13;;;26.48;36.01
31337;BME280;22846;42.654;23.314;2023-07-09T01:19:58;94892.59;;;26.46;36.01
31337;BME280;22846;42.654;23.314;2023-07-09T01:22:24;94891.81;;;26.46;36.16
31337;BME280;22846;42.654;23.314;2023-07-09T01:25:06;94883.28;;;26.44;35.85
31337;BME280;22846;42.654;23.314;2023-07-09T01:27:38;94878.69;;;26.41;36.21
31337;BME280;22846;42.654;23.314;2023-07-09T01:30:17;94882.50;;;26.43;36.34
31337;BME280;22846;42.654;23.314;2023-07-09T01:32:47;94876.91;;;26.47;35.96
31337;BME280;22846;42.654;23.314;2023-07-09T01:35:14;94855.25;;;26.27;35.95
31337;BME280;22846;42.654;23.314;2023-07-09T01:37:41;94878.22;;;26.42;35.91
31337;BME280;22846;42.654;23.314;2023-07-09T01:40:08;94881.44;;;26.41;36.00
31337;BME280;22846;42.654;23.314;2023-07-09T01:42:35;94877.16;;;26.40;35.79
31337;BME280;22846;42.654;23.314;2023-07-09T01:45:01;94886.53;;;26.39;35.78
31337;BME280;22846;42.654;23.314;2023-07-09T01:47:29;94886.53;;;26.39;36.12
31337;BME280;22846;42.654;23.314;2023-07-09T01:49:54;94890.50;;;26.38;36.12
31337;BME280;22846;42.654;23.314;2023-07-09T01:52:23;94897.97;;;26.37;35.76
31337;BME280;22846;42.654;23.314;2023-07-09T01:54:49;94891.69;;;26.37;35.94
31337;BME280;22846;42.654;23.314;2023-07-09T01:57:29;94903.88;;;26.36;35.97
31337;BME280;22846;42.654;23.314;2023-07-09T01:59:59;94892.91;;;26.36;35.83
31337;BME280;22846;42.654;23.314;2023-07-09T02:02:26;94896.09;;;26.34;35.82
31337;BME280;22846;42.654;23.314;2023-07-09T02:04:53;94893.28;;;26.25;35.66
31337;BME280;22846;42.654;23.314;2023-07-09T02:07:20;94899.72;;;26.31;35.96
31337;BME280;22846;42.654;23.314;2023-07-09T02:09:46;94888.69;;;26.22;35.95
31337;BME280;22846;42.654;23.314;2023-07-09T02:12:13;94903.03;;;26.26;35.50
31337;BME280;22846;42.654;23.314;2023-07-09T02:14:39;94903.03;;;26.26;35.95
31337;BME280;22846;42.654;23.314;2023-07-09T02:17:06;94897.66;;;26.23;35.95
31337;BME280;22846;42.654;23.314;2023-07-09T02:19:31;94901.63;;;26.22;36.20
31337;BME280;22846;42.654;23.314;2023-07-09T02:21:57;94898.53;;;26.20;35.68
31337;BME280;22846;42.654;23.314;2023-07-09T02:24:22;94890.78;;;26.18;35.85
31337;BME280;22846;42.654;23.314;2023-07-09T02:26:56;94894.72;;;26.17;35.83
31337;BME280;22846;42.654;23.314;2023-07-09T02:29:22;94889.94;;;26.09;35.98
31337;BME280;22846;42.654;23.314;2023-07-09T02:31:49;94905.81;;;26.14;35.83
31337;BME280;22846;42.654;23.314;2023-07-09T02:34:16;94911.06;;;26.08;35.92
31337;BME280;22846;42.654;23.314;2023-07-09T02:36:42;94911.41;;;26.10;36.05
31337;BME280;22846;42.654;23.314;2023-07-09T02:39:12;94909.88;;;26.09;35.96
31337;BME280;22846;42.654;23.314;2023-07-09T02:41:41;94914.69;;;26.05;36.24
31337;BME280;22846;42.654;23.314;2023-07-09T02:44:07;94913.47;;;26.06;36.11
31337;BME280;22846;42.654;23.314;2023-07-09T02:46:33;94920.59;;;26.04;36.34
31337;BME280;22846;42.654;23.314;2023-07-09T02:48:58;94923.78;;;26.02;36.21
31337;BME280;22846;42.654;23.314;2023-07-09T02:51:24;94926.94;;;26.01;36.27
31337;BME280;22846;42.654;23.314;2023-07-09T02:53:57;94923.13;;;25.98;36.09
31337;BME280;22846;42.654;23.314;2023-07-09T02:56:23;94926.31;;;25.97;36.48
31337;BME280;22846;42.654;23.314;2023-07-09T02:58:50;94925.56;;;25.96;36.21
31337;BME280;22846;42.654;23.314;2023-07-09T03:01:16;94927.97;;;25.94;36.50
31337;BME280;22846;42.654;23.314;2023-07-09T03:03:41;94933.88;;;25.93;36.12
31337;BME280;22846;42.654;23.314;2023-07-09T03:06:07;94927.09;;;25.85;36.58
31337;BME280;22846;42.654;23.314;2023-07-09T03:08:32;94943.72;;;25.90;36.51
31337;BME280;22846;42.654;23.314;2023-07-09T03:10:58;94951.19;;;25.90;35.93
31337;BME280;22846;42.654;23.314;2023-07-09T03:13:24;94942.75;;;25.84;36.22
31337;BME280;22846;42.654;23.314;2023-07-09T03:15:58;94946.59;;;25.87;36.54
31337;BME280;22846;42.654;23.314;2023-07-09T03:18:23;94939.56;;;25.86;36.02
31337;BME280;22846;42.654;23.314;2023-07-09T03:20:49;94940.78;;;25.85;36.40
31337;BME280;22846;42.654;23.314;2023-07-09T03:23:14;94937.28;;;25.84;36.55
31337;BME280;22846;42.654;23.314;2023-07-09T03:25:41;94946.69;;;25.83;36.51
31337;BME280;22846;42.654;23.314;2023-07-09T03:28:06;94955.34;;;25.82;36.46
31337;BME280;22846;42.654;23.314;2023-07-09T03:30:32;94945.59;;;25.81;36.42
31337;BME280;22846;42.654;23.314;2023-07-09T03:32:57;94945.59;;;25.81;36.67
31337;BME280;22846;42.654;23.314;2023-07-09T03:35:22;94948.75;;;25.79;36.73
31337;BME280;22846;42.654;23.314;2023-07-09T03:37:48;94955.03;;;25.80;36.96
31337;BME280;22846;42.654;23.314;2023-07-09T03:40:23;94950.41;;;25.77;37.01
31337;BME280;22846;42.654;23.314;2023-07-09T03:42:49;94951.19;;;25.77;36.74
31337;BME280;22846;42.654;23.314;2023-07-09T03:45:15;94940.44;;;25.70;36.96
31337;BME280;22846;42.654;23.314;2023-07-09T03:47:40;94949.66;;;25.76;36.79
31337;BME280;22846;42.654;23.314;2023-07-09T03:50:08;94946.13;;;25.76;36.99
31337;BME280;22846;42.654;23.314;2023-07-09T03:52:34;94958.63;;;25.77;37.16
31337;BME280;22846;42.654;23.314;2023-07-09T03:55:00;94954.34;;;25.76;37.06
31337;BME280;22846;42.654;23.314;2023-07-09T03:57:26;94956.69;;;25.77;37.35
31337;BME280;22846;42.654;23.314;2023-07-09T03:59:52;94960.94;;;25.78;37.15
31337;BME280;22846;42.654;23.314;2023-07-09T04:02:17;94955.47;;;25.78;37.36
31337;BME280;22846;42.654;23.314;2023-07-09T04:04:43;94950.59;;;25.70;37.11
31337;BME280;22846;42.654;23.314;2023-07-09T04:07:08;94959.31;;;25.81;37.07
31337;BME280;22846;42.654;23.314;2023-07-09T04:09:33;94964.31;;;25.82;37.09
31337;BME280;22846;42.654;23.314;2023-07-09T04:11:59;94965.88;;;25.83;37.14
31337;BME280;22846;42.654;23.314;2023-07-09T04:14:27;94973.22;;;25.86;37.42
31337;BME280;22846;42.654;23.314;2023-07-09T04:16:52;94962.03;;;25.81;37.54
31337;BME280;22846;42.654;23.314;2023-07-09T04:19:17;94975.84;;;25.90;37.66
31337;BME280;22846;42.654;23.314;2023-07-09T04:21:43;94974.19;;;25.92;37.51
31337;BME280;22846;42.654;23.314;2023-07-09T04:24:08;94974.06;;;25.96;37.64
31337;BME280;22846;42.654;23.314;2023-07-09T04:26:33;94977.91;;;25.98;37.60
31337;BME280;22846;42.654;23.314;2023-07-09T04:29:00;94973.09;;;26.02;37.36
31337;BME280;22846;42.654;23.314;2023-07-09T04:31:26;94980.41;;;26.05;37.85
31337;BME280;22846;42.654;23.314;2023-07-09T04:33:51;94977.59;;;26.09;37.68
31337;BME280;22846;42.654;23.314;2023-07-09T04:36:18;94984.50;;;26.13;37.56
31337;BME280;22846;42.654;23.314;2023-07-09T04:38:43;94993.34;;;26.17;37.67
31337;BME280;22846;42.654;23.314;2023-07-09T04:41:08;94985.00;;;26.21;37.61
31337;BME280;22846;42.654;23.314;2023-07-09T04:43:34;94992.25;;;26.27;37.70
31337;BME280;22846;42.654;23.314;2023-07-09T04:45:59;94984.66;;;26.31;37.60
31337;BME280;22846;42.654;23.314;2023-07-09T04:48:25;94988.41;;;26.37;37.45
31337;BME280;22846;42.654;23.314;2023-07-09T04:50:50;94987.53;;;26.40;37.54
31337;BME280;22846;42.654;23.314;2023-07-09T04:53:16;94981.97;;;26.44;37.49
31337;BME280;22846;42.654;23.314;2023-07-09T04:55:41;94980.31;;;26.46;37.46
31337;BME280;22846;42.654;23.314;2023-07-09T04:58:07;94978.19;;;26.50;38.06
31337;BME280;22846;42.654;23.314;2023-07-09T05:00:32;94983.13;;;26.55;38.12
31337;BME280;22846;42.654;23.314;2023-07-09T05:02:58;94984.22;;;26.57;37.58
31337;BME280;22846;42.654;23.314;2023-07-09T05:05:23;94990.78;;;26.60;37.63
31337;BME280;22846;42.654;23.314;2023-07-09T05:07:49;94998.13;;;26.63;37.78
31337;BME280;22846;42.654;23.314;2023-07-09T05:10:14;94994.50;;;26.66;37.69
31337;BME280;22846;42.654;23.314;2023-07-09T05:12:50;95007.00;;;26.67;37.49
31337;BME280;22846;42.654;23.314;2023-07-09T05:15:17;94991.75;;;26.66;37.58
31337;BME280;22846;42.654;23.314;2023-07-09T05:17:43;95000.31;;;26.68;37.20
31337;BME280;22846;42.654;23.314;2023-07-09T05:20:09;94999.09;;;26.69;37.36
31337;BME280;22846;42.654;23.314;2023-07-09T05:22:35;95004.25;;;26.67;37.52
31337;BME280;22846;42.654;23.314;2023-07-09T05:25:00;95005.78;;;26.68;37.37
31337;BME280;22846;42.654;23.314;2023-07-09T05:27:26;94997.56;;;26.68;37.42
31337;BME280;22846;42.654;23.314;2023-07-09T05:29:51;95007.31;;;26.69;37.45
31337;BME280;22846;42.654;23.314;2023-07-09T05:32:17;95001.38;;;26.70;37.55
31337;BME280;22846;42.654;23.314;2023-07-09T05:34:42;95000.97;;;26.72;37.58
31337;BME280;22846;42.654;23.314;2023-07-09T05:37:07;95001.28;;;26.74;37.56
31337;BME280;22846;42.654;23.314;2023-07-09T05:39:33;94997.31;;;26.75;37.55
31337;BME280;22846;42.654;23.314;2023-07-09T05:41:58;94980.22;;;26.71;37.77
31337;BME280;22846;42.654;23.314;2023-07-09T05:44:24;94985.13;;;26.76;37.19
31337;BME280;22846;42.654;23.314;2023-07-09T05:46:49;94998.72;;;26.79;38.03
31337;BME280;22846;42.654;23.314;2023-07-09T05:49:14;94995.56;;;26.81;37.92
31337;BME280;22846;42.654;23.314;2023-07-09T05:51:40;95000.59;;;26.82;38.09
31337;BME280;22846;42.654;23.314;2023-07-09T05:54:05;94991.50;;;26.85;38.40
31337;BME280;22846;42.654;23.314;2023-07-09T05:56:30;94991.38;;;26.89;38.57
31337;BME280;22846;42.654;23.314;2023-07-09T05:58:56;94991.25;;;26.92;38.57
31337;BME280;22846;42.654;23.314;2023-07-09T06:01:22;94992.66;;;26.97;38.58
31337;BME280;22846;42.654;23.314;2023-07-09T06:03:47;95002.75;;;27.00;39.00
31337;BME280;22846;42.654;23.314;2023-07-09T06:06:14;94995.63;;;27.02;38.74
31337;BME280;22846;42.654;23.314;2023-07-09T06:08:39;94996.69;;;27.05;38.99
31337;BME280;22846;42.654;23.314;2023-07-09T06:11:05;94979.59;;;27.01;39.40
31337;BME280;22846;42.654;23.314;2023-07-09T06:13:31;94990.22;;;27.11;39.00
31337;BME280;22846;42.654;23.314;2023-07-09T06:15:57;94995.56;;;27.15;38.94
31337;BME280;22846;42.654;23.314;2023-07-09T06:18:24;94983.38;;;27.16;39.23
31337;BME280;22846;42.654;23.314;2023-07-09T06:20:51;94989.94;;;27.18;39.31
31337;BME280;22846;42.654;23.314;2023-07-09T06:23:18;94987.53;;;27.20;39.45
31337;BME280;22846;42.654;23.314;2023-07-09T06:25:45;94976.56;;;27.20;39.00
31337;BME280;22846;42.654;23.314;2023-07-09T06:28:17;94985.41;;;27.24;39.56
31337;BME280;22846;42.654;23.314;2023-07-09T06:30:43;94983.00;;;27.26;39.51
31337;BME280;22846;42.654;23.314;2023-07-09T06:33:10;94976.91;;;27.31;40.12
31337;BME280;22846;42.654;23.314;2023-07-09T06:35:36;94978.91;;;27.31;39.19
31337;BME280;22846;42.654;23.314;2023-07-09T06:38:01;94982.28;;;27.34;39.95
31337;BME280;22846;42.654;23.314;2023-07-09T06:40:28;94981.53;;;27.34;39.86
31337;BME280;22846;42.654;23.314;2023-07-09T06:42:53;94981.72;;;27.39;39.96
31337;BME280;22846;42.654;23.314;2023-07-09T06:45:19;94982.47;;;27.40;39.77
31337;BME280;22846;42.654;23.314;2023-07-09T06:47:44;94986.31;;;27.42;38.78
31337;BME280;22846;42.654;23.314;2023-07-09T06:50:09;94967.09;;;27.42;38.94
31337;BME280;22846;42.654;23.314;2023-07-09T06:52:35;94982.66;;;27.45;40.07
31337;BME280;22846;42.654;23.314;2023-07-09T06:55:00;94981.44;;;27.46;39.98
31337;BME280;22846;42.654;23.314;2023-07-09T06:57:26;94974.28;;;27.49;40.16
31337;BME280;22846;42.654;23.314;2023-07-09T06:59:51;94980.09;;;27.51;40.27
31337;BME280;22846;42.654;23.314;2023-07-09T07:02:16;94972.66;;;27.51;39.87
31337;BME280;22846;42.654;23.314;2023-07-09T07:04:42;94975.69;;;27.53;40.23
31337;BME280;22846;42.654;23.314;2023-07-09T07:07:08;94978.75;;;27.55;40.05
31337;BME280;22846;42.654;23.314;2023-07-09T07:09:34;94981.03;;;27.57;39.60
31337;BME280;22846;42.654;23.314;2023-07-09T07:11:59;94982.91;;;27.60;40.21
31337;BME280;22846;42.654;23.314;2023-07-09T07:14:25;94976.19;;;27.61;39.36
31337;BME280;22846;42.654;23.314;2023-07-09T07:16:50;94979.28;;;27.63;40.39
31337;BME280;22846;42.654;23.314;2023-07-09T07:19:15;94980.03;;;27.63;40.08
31337;BME280;22846;42.654;23.314;2023-07-09T07:21:41;94978.38;;;27.66;39.86
31337;BME280;22846;42.654;23.314;2023-07-09T07:24:06;94972.44;;;27.67;40.21
31337;BME280;22846;42.654;23.314;2023-07-09T07:26:32;94968.16;;;27.66;39.79
31337;BME280;22846;42.654;23.314;2023-07-09T07:28:57;94969.25;;;27.69;39.83
31337;BME280;22846;42.654;23.314;2023-07-09T07:31:23;94962.09;;;27.71;40.09
31337;BME280;22846;42.654;23.314;2023-07-09T07:33:48;94971.41;;;27.74;40.06
31337;BME280;22846;42.654;23.314;2023-07-09T07:36:13;94959.97;;;27.75;40.23
31337;BME280;22846;42.654;23.314;2023-07-09T07:38:39;94951.09;;;27.71;40.62
31337;BME280;22846;42.654;23.314;2023-07-09T07:41:04;94952.06;;;27.77;39.28
31337;BME280;22846;42.654;23.314;2023-07-09T07:43:30;94952.06;;;27.77;37.88
31337;BME280;22846;42.654;23.314;2023-07-09T07:45:55;94959.34;;;27.71;36.35
31337;BME280;22846;42.654;23.314;2023-07-09T07:48:21;94966.63;;;27.65;36.45
31337;BME280;22846;42.654;23.314;2023-07-09T07:50:46;94959.84;;;27.57;36.55
31337;BME280;22846;42.654;23.314;2023-07-09T07:53:14;94966.84;;;27.49;36.08
31337;BME280;22846;42.654;23.314;2023-07-09T07:55:40;94969.84;;;27.42;36.74
31337;BME280;22846;42.654;23.314;2023-07-09T07:58:11;94955.00;;;27.40;36.79
31337;BME280;22846;42.654;23.314;2023-07-09T08:00:37;94960.97;;;27.38;36.99
31337;BME280;22846;42.654;23.314;2023-07-09T08:03:03;94962.16;;;27.37;37.19
31337;BME280;22846;42.654;23.314;2023-07-09T08:05:29;94958.22;;;27.38;37.39
31337;BME280;22846;42.654;23.314;2023-07-09T08:07:55;94955.16;;;27.36;36.83
31337;BME280;22846;42.654;23.314;2023-07-09T08:10:21;94952.84;;;27.35;37.18
31337;BME280;22846;42.654;23.314;2023-07-09T08:12:46;94952.84;;;27.35;37.42
31337;BME280;22846;42.654;23.314;2023-07-09T08:15:12;94946.59;;;27.34;38.36
31337;BME280;22846;42.654;23.314;2023-07-09T08:17:38;94942.81;;;27.41;38.22
31337;BME280;22846;42.654;23.314;2023-07-09T08:20:04;94947.44;;;27.44;37.26
31337;BME280;22846;42.654;23.314;2023-07-09T08:22:29;94948.63;;;27.43;37.29
31337;BME280;22846;42.654;23.314;2023-07-09T08:24:55;94945.56;;;27.41;37.83
31337;BME280;22846;42.654;23.314;2023-07-09T08:27:21;94939.66;;;27.42;37.98
31337;BME280;22846;42.654;23.314;2023-07-09T08:29:46;94944.53;;;27.47;37.79
31337;BME280;22846;42.654;23.314;2023-07-09T08:32:12;94931.47;;;27.51;37.54
31337;BME280;22846;42.654;23.314;2023-07-09T08:34:39;94940.44;;;27.52;37.54
31337;BME280;22846;42.654;23.314;2023-07-09T08:37:06;94949.72;;;27.24;44.12
31337;BME280;22846;42.654;23.314;2023-07-09T08:39:32;94939.72;;;26.75;41.56
31337;BME280;22846;42.654;23.314;2023-07-09T08:42:07;94942.47;;;26.75;41.45
31337;BME280;22846;42.654;23.314;2023-07-09T08:50:22;94946.38;;;27.20;39.58
31337;BME280;22846;42.654;23.314;2023-07-09T08:52:50;94946.38;;;27.20;40.01
31337;BME280;22846;42.654;23.314;2023-07-09T08:55:24;94948.13;;;27.35;39.48
31337;BME280;22846;42.654;23.314;2023-07-09T08:58:01;94943.00;;;27.46;39.59
31337;BME280;22846;42.654;23.314;2023-07-09T09:00:35;94939.38;;;27.49;37.58
31337;BME280;22846;42.654;23.314;2023-07-09T09:05:41;94947.34;;;27.56;38.08
31337;BME280;22846;42.654;23.314;2023-07-09T09:10:43;94951.06;;;27.62;37.83
31337;BME280;22846;42.654;23.314;2023-07-09T09:13:16;94954.03;;;27.55;36.87
31337;BME280;22846;42.654;23.314;2023-07-09T09:15:46;94941.97;;;27.53;36.67
31337;BME280;22846;42.654;23.314;2023-07-09T09:18:20;94945.06;;;27.55;38.29
31337;BME280;22846;42.654;23.314;2023-07-09T09:20:57;94940.97;;;27.59;37.94
31337;BME280;22846;42.654;23.314;2023-07-09T09:23:36;94940.19;;;27.59;36.96
31337;BME280;22846;42.654;23.314;2023-07-09T09:26:09;94938.78;;;27.54;37.24
31337;BME280;22846;42.654;23.314;2023-07-09T09:28:39;94944.72;;;27.53;37.11
31337;BME280;22846;42.654;23.314;2023-07-09T09:31:04;94946.97;;;27.45;36.24
31337;BME280;22846;42.654;23.314;2023-07-09T09:33:43;94941.75;;;27.38;36.41
31337;BME280;22846;42.654;23.314;2023-07-09T09:36:20;94939.13;;;27.35;36.64
31337;BME280;22846;42.654;23.314;2023-07-09T09:38:46;94933.19;;;27.36;37.62
31337;BME280;22846;42.654;23.314;2023-07-09T09:41:14;94933.84;;;27.40;37.41
31337;BME280;22846;42.654;23.314;2023-07-09T09:43:43;94931.09;;;27.40;37.79
31337;BME280;22846;42.654;23.314;2023-07-09T09:46:09;94936.44;;;27.44;37.34
31337;BME280;22846;42.654;23.314;2023-07-09T09:48:44;94932.03;;;27.46;37.16
31337;BME280;22846;42.654;23.314;2023-07-09T09:51:11;94927.94;;;27.51;37.75
31337;BME280;22846;42.654;23.314;2023-07-09T09:53:39;94920.34;;;27.55;38.39
31337;BME280;22846;42.654;23.314;2023-07-09T09:56:13;94930.25;;;27.61;38.26
31337;BME280;22846;42.654;23.314;2023-07-09T09:58:40;94926.06;;;27.69;38.66
31337;BME280;22846;42.654;23.314;2023-07-09T10:01:14;94923.94;;;27.73;38.41
31337;BME280;22846;42.654;23.314;2023-07-09T10:03:40;94918.47;;;27.73;38.49
31337;BME280;22846;42.654;23.314;2023-07-09T10:06:14;94916.22;;;27.81;38.57
31337;BME280;22846;42.654;23.314;2023-07-09T10:13:54;94913.03;;;27.91;38.26
31337;BME280;22846;42.654;23.314;2023-07-09T10:16:44;94912.88;;;27.95;38.11
31337;BME280;22846;42.654;23.314;2023-07-09T10:19:38;94907.72;;;27.97;37.98
31337;BME280;22846;42.654;23.314;2023-07-09T10:22:07;94902.53;;;27.99;38.55
31337;BME280;22846;42.654;23.314;2023-07-09T10:27:16;94906.69;;;28.03;38.33
31337;BME280;22846;42.654;23.314;2023-07-09T10:30:13;94905.44;;;28.04;38.38
31337;BME280;22846;42.654;23.314;2023-07-09T10:32:58;94893.06;;;28.00;38.60
31337;BME280;22846;42.654;23.314;2023-07-09T10:41:17;94896.28;;;28.07;38.48
31337;BME280;22846;42.654;23.314;2023-07-09T10:43:54;94900.88;;;28.10;38.57
31337;BME280;22846;42.654;23.314;2023-07-09T10:46:27;94898.88;;;28.11;38.83
31337;BME280;22846;42.654;23.314;2023-07-09T10:48:54;94896.00;;;28.14;38.43
31337;BME280;22846;42.654;23.314;2023-07-09T10:51:41;94894.03;;;28.15;38.56
31337;BME280;22846;42.654;23.314;2023-07-09T10:54:19;94900.28;;;28.15;38.24
31337;BME280;22846;42.654;23.314;2023-07-09T10:56:53;94892.34;;;28.17;38.29
31337;BME280;22846;42.654;23.314;2023-07-09T10:59:28;94897.38;;;28.18;38.60
31337;BME280;22846;42.654;23.314;2023-07-09T11:01:58;94900.00;;;28.22;38.94
31337;BME280;22846;42.654;23.314;2023-07-09T11:04:33;94902.75;;;28.22;39.14
31337;BME280;22846;42.654;23.314;2023-07-09T11:07:04;94893.75;;;28.21;38.89
31337;BME280;22846;42.654;23.314;2023-07-09T11:09:35;94892.06;;;28.24;37.99
31337;BME280;22846;42.654;23.314;2023-07-09T11:12:09;94890.09;;;28.24;38.31
31337;BME280;22846;42.654;23.314;2023-07-09T11:14:43;94895.13;;;28.26;38.83
31337;BME280;22846;42.654;23.314;2023-07-09T11:17:14;94890.53;;;28.23;39.44
31337;BME280;22846;42.654;23.314;2023-07-09T11:19:42;94889.91;;;28.19;38.90
31337;BME280;22846;42.654;23.314;2023-07-09T11:27:28;94878.50;;;28.29;38.97
31337;BME280;22846;42.654;23.314;2023-07-09T11:30:20;94889.97;;;28.37;38.85
31337;BME280;22846;42.654;23.314;2023-07-09T11:32:46;94888.59;;;28.41;38.20
31337;BME280;22846;42.654;23.314;2023-07-09T11:35:23;94881.25;;;28.38;38.80
31337;BME280;22846;42.654;23.314;2023-07-09T11:37:50;94883.25;;;28.38;37.96
31337;BME280;22846;42.654;23.314;2023-07-09T11:40:16;94876.81;;;28.32;38.00
31337;BME280;22846;42.654;23.314;2023-07-09T11:42:56;94881.72;;;28.37;38.83
31337;BME280;22846;42.654;23.314;2023-07-09T11:45:35;94881.09;;;28.33;37.69
31337;BME280;22846;42.654;23.314;2023-07-09T11:48:15;94882.00;;;28.30;37.89
31337;BME280;22846;42.654;23.314;2023-07-09T11:50:48;94876.50;;;28.30;36.29
31337;BME280;22846;42.654;23.314;2023-07-09T11:55:59;94883.78;;;28.15;33.81
31337;BME280;22846;42.654;23.314;2023-07-09T11:58:24;94879.06;;;28.16;33.87
31337;BME280;22846;42.654;23.314;2023-07-09T12:00:52;94878.13;;;28.18;34.18
31337;BME280;22846;42.654;23.314;2023-07-09T12:03:30;94880.44;;;28.20;34.65
31337;BME280;22846;42.654;23.314;2023-07-09T12:06:04;94878.78;;;28.22;35.13
31337;BME280;22846;42.654;23.314;2023-07-09T12:08:36;94865.66;;;28.26;34.75
31337;BME280;22846;42.654;23.314;2023-07-09T12:11:02;94861.53;;;28.22;33.56
31337;BME280;22846;42.654;23.314;2023-07-09T12:13:28;94864.44;;;28.27;33.99
31337;BME280;22846;42.654;23.314;2023-07-09T12:15:54;94864.28;;;28.22;33.77
31337;BME280;22846;42.654;23.314;2023-07-09T12:18:19;94869.03;;;28.21;33.58
31337;BME280;22846;42.654;23.314;2023-07-09T12:20:49;94873.16;;;28.26;34.38
31337;BME280;22846;42.654;23.314;2023-07-09T12:23:20;94868.25;;;28.30;35.01
31337;BME280;22846;42.654;23.314;2023-07-09T12:25:49;94869.78;;;28.31;35.71
31337;BME280;22846;42.654;23.314;2023-07-09T12:28:15;94876.38;;;28.33;35.59
31337;BME280;22846;42.654;23.314;2023-07-09T12:30:49;94868.13;;;28.33;35.65
31337;BME280;22846;42.654;23.314;2023-07-09T12:33:19;94860.63;;;28.34;36.36
31337;BME280;22846;42.654;23.314;2023-07-09T12:35:46;94858.34;;;28.32;36.72
31337;BME280;22846;42.654;23.314;2023-07-09T12:38:45;94862.91;;;28.35;36.69
31337;BME280;22846;42.654;23.314;2023-07-09T12:41:24;94851.75;;;28.30;37.41
31337;BME280;22846;42.654;23.314;2023-07-09T12:43:53;94847.78;;;28.22;34.91
31337;BME280;22846;42.654;23.314;2023-07-09T12:46:20;94854.50;;;28.30;36.19
31337;BME280;22846;42.654;23.314;2023-07-09T12:48:46;94849.63;;;28.34;35.73
31337;BME280;22846;42.654;23.314;2023-07-09T12:51:28;94841.69;;;28.36;35.93
31337;BME280;22846;42.654;23.314;2023-07-09T12:54:19;94843.97;;;28.37;36.22
31337;BME280;22846;42.654;23.314;2023-07-09T12:56:45;94844.28;;;28.39;36.18
31337;BME280;22846;42.654;23.314;2023-07-09T12:59:25;94847.03;;;28.39;36.63
31337;BME280;22846;42.654;23.314;2023-07-09T13:02:07;94850.09;;;28.41;36.76
31337;BME280;22846;42.654;23.314;2023-07-09T13:04:36;94845.34;;;28.42;37.09
31337;BME280;22846;42.654;23.314;2023-07-09T13:07:02;94838.94;;;28.45;37.61
31337;BME280;22846;42.654;23.314;2023-07-09T13:09:28;94841.69;;;28.45;37.67
31337;BME280;22846;42.654;23.314;2023-07-09T13:11:54;94839.69;;;28.45;37.46
31337;BME280;22846;42.654;23.314;2023-07-09T13:16:47;94835.28;;;28.48;37.32
31337;BME280;22846;42.654;23.314;2023-07-09T13:19:13;94838.03;;;28.48;37.37
31337;BME280;22846;42.654;23.314;2023-07-09T13:21:39;94845.06;;;28.49;37.86
31337;BME280;22846;42.654;23.314;2023-07-09T13:24:17;94844.31;;;28.48;37.77
31337;BME280;22846;42.654;23.314;2023-07-09T13:26:44;94849.34;;;28.50;38.04
31337;BME280;22846;42.654;23.314;2023-07-09T13:29:17;94849.34;;;28.50;37.66
31337;BME280;22846;42.654;23.314;2023-07-09T13:31:43;94843.97;;;28.55;37.58
31337;BME280;22846;42.654;23.314;2023-07-09T13:34:29;94844.91;;;28.52;37.80
31337;BME280;22846;42.654;23.314;2023-07-09T13:36:58;94858.66;;;28.52;37.78